createdAt,value
2018-06-29T00:00:42.987Z,0.00
2018-06-29T00:01:42.911Z,0.00
2018-06-29T00:02:43.095Z,0.00
2018-06-29T00:03:42.904Z,0.00
2018-06-29T00:04:42.874Z,0.00
2018-06-29T00:05:42.873Z,0.00
2018-06-29T00:06:42.875Z,0.00
2018-06-29T00:07:42.859Z,0.00
2018-06-29T00:08:42.837Z,0.00
2018-06-29T00:09:42.844Z,0.00
2018-06-29T00:10:42.821Z,0.00
2018-06-29T00:11:42.805Z,0.00
2018-06-29T00:12:42.797Z,0.00
2018-06-29T00:13:42.805Z,0.00
2018-06-29T00:14:43.033Z,0.00
2018-06-29T00:15:42.780Z,0.00
2018-06-29T00:16:42.761Z,0.00
2018-06-29T00:17:42.751Z,0.00
2018-06-29T00:18:42.730Z,0.00
2018-06-29T00:19:42.738Z,0.00
2018-06-29T00:20:42.707Z,0.00
2018-06-29T00:21:42.700Z,0.00
2018-06-29T00:22:42.687Z,0.00
2018-06-29T00:23:42.683Z,0.00
2018-06-29T00:24:42.664Z,0.00
2018-06-29T00:25:42.669Z,0.00
2018-06-29T00:26:42.642Z,0.00
2018-06-29T00:27:42.642Z,0.00
2018-06-29T00:28:42.623Z,0.00
2018-06-29T00:29:42.610Z,0.00
2018-06-29T00:30:42.617Z,0.00
2018-06-29T00:31:42.593Z,0.00
2018-06-29T00:32:42.579Z,0.00
2018-06-29T00:33:42.563Z,0.00
2018-06-29T00:34:42.556Z,0.00
2018-06-29T00:35:42.566Z,0.00
2018-06-29T00:36:44.449Z,0.00
2018-06-29T00:37:42.550Z,0.00
2018-06-29T00:38:42.513Z,0.00
2018-06-29T00:39:42.502Z,0.00
2018-06-29T00:40:42.507Z,0.00
2018-06-29T00:41:42.479Z,0.00
2018-06-29T00:42:42.483Z,0.00
2018-06-29T00:43:42.457Z,0.00
2018-06-29T00:44:42.445Z,0.00
2018-06-29T00:45:42.451Z,0.00
2018-06-29T00:46:42.432Z,0.00
2018-06-29T00:47:42.407Z,0.00
2018-06-29T00:48:42.401Z,0.00
2018-06-29T00:49:42.389Z,0.00
2018-06-29T00:50:42.376Z,0.00
2018-06-29T00:51:42.385Z,0.00
2018-06-29T00:52:42.358Z,0.00
2018-06-29T00:53:42.345Z,0.00
2018-06-29T00:54:42.383Z,0.00
2018-06-29T00:55:42.330Z,0.00
2018-06-29T00:56:42.310Z,0.00
2018-06-29T00:57:42.314Z,0.00
2018-06-29T00:58:42.291Z,0.00
2018-06-29T00:59:42.274Z,0.00
2018-06-29T01:00:42.271Z,0.00
2018-06-29T01:01:42.255Z,0.00
2018-06-29T01:02:42.260Z,0.00
2018-06-29T01:03:42.247Z,0.00
2018-06-29T01:04:42.221Z,0.00
2018-06-29T01:05:42.227Z,0.00
2018-06-29T01:06:42.203Z,0.00
2018-06-29T01:07:42.184Z,0.00
2018-06-29T01:08:42.179Z,0.00
2018-06-29T01:09:42.162Z,0.00
2018-06-29T01:10:42.171Z,0.00
2018-06-29T01:11:42.154Z,0.00
2018-06-29T01:12:42.129Z,0.00
2018-06-29T01:13:42.117Z,0.00
2018-06-29T01:14:42.127Z,0.00
2018-06-29T01:15:42.124Z,0.00
2018-06-29T01:16:42.088Z,0.00
2018-06-29T01:17:42.074Z,0.00
2018-06-29T01:18:42.078Z,0.00
2018-06-29T01:19:42.053Z,0.00
2018-06-29T01:20:42.056Z,0.00
2018-06-29T01:21:42.036Z,0.00
2018-06-29T01:22:42.016Z,0.00
2018-06-29T01:23:42.006Z,0.00
2018-06-29T01:24:41.993Z,0.00
2018-06-29T01:25:41.999Z,0.00
2018-06-29T01:26:41.990Z,0.00
2018-06-29T01:27:41.976Z,0.00
2018-06-29T01:28:41.959Z,0.00
2018-06-29T01:29:41.938Z,0.00
2018-06-29T01:30:41.928Z,0.00
2018-06-29T01:31:41.945Z,0.00
2018-06-29T01:32:41.907Z,0.00
2018-06-29T01:33:41.894Z,0.00
2018-06-29T01:34:41.880Z,0.00
2018-06-29T01:35:41.872Z,0.00
2018-06-29T01:36:41.855Z,0.00
2018-06-29T01:37:41.859Z,0.00
2018-06-29T01:38:41.836Z,0.00
2018-06-29T01:39:41.820Z,0.00
2018-06-29T01:40:41.810Z,0.00
2018-06-29T01:41:42.468Z,0.00
2018-06-29T01:42:41.791Z,0.00
2018-06-29T01:43:41.777Z,0.00
2018-06-29T01:44:41.767Z,0.00
2018-06-29T01:45:41.752Z,0.00
2018-06-29T01:46:41.763Z,0.00
2018-06-29T01:47:41.732Z,0.00
2018-06-29T01:48:41.719Z,0.00
2018-06-29T01:49:41.707Z,0.00
2018-06-29T01:50:41.694Z,0.00
2018-06-29T01:51:41.697Z,0.00
2018-06-29T01:52:41.687Z,0.00
2018-06-29T01:53:41.663Z,0.00
2018-06-29T01:54:41.667Z,0.00
2018-06-29T01:55:41.639Z,0.00
2018-06-29T01:56:41.624Z,0.00
2018-06-29T01:57:41.628Z,0.00
2018-06-29T01:58:41.602Z,0.00
2018-06-29T01:59:41.589Z,0.00
2018-06-29T02:00:41.576Z,0.00
2018-06-29T02:01:41.564Z,0.00
2018-06-29T02:02:41.566Z,0.00
2018-06-29T02:03:41.547Z,0.00
2018-06-29T02:04:41.532Z,0.00
2018-06-29T02:05:41.521Z,0.00
2018-06-29T02:06:41.504Z,0.00
2018-06-29T02:07:41.496Z,0.00
2018-06-29T02:08:41.494Z,0.00
2018-06-29T02:09:41.467Z,0.00
2018-06-29T02:10:41.461Z,0.00
2018-06-29T02:11:41.443Z,0.00
2018-06-29T02:12:41.437Z,0.00
2018-06-29T02:13:41.439Z,0.00
2018-06-29T02:14:41.409Z,0.00
2018-06-29T02:15:41.400Z,0.00
2018-06-29T02:16:41.388Z,0.00
2018-06-29T02:17:41.394Z,0.00
2018-06-29T02:18:41.359Z,0.00
2018-06-29T02:19:41.354Z,0.00
2018-06-29T02:20:41.342Z,0.00
2018-06-29T02:21:41.328Z,0.00
2018-06-29T02:22:41.313Z,0.00
2018-06-29T02:23:41.318Z,0.00
2018-06-29T02:24:41.302Z,0.00
2018-06-29T02:25:41.280Z,0.00
2018-06-29T02:26:41.286Z,0.00
2018-06-29T02:27:41.311Z,0.00
2018-06-29T02:28:41.240Z,0.00
2018-06-29T02:29:41.233Z,0.00
2018-06-29T02:30:41.259Z,0.00
2018-06-29T02:31:41.223Z,0.00
2018-06-29T02:32:41.203Z,0.00
2018-06-29T02:33:41.183Z,0.00
2018-06-29T02:34:41.175Z,0.00
2018-06-29T02:35:41.157Z,0.00
2018-06-29T02:36:41.172Z,0.00
2018-06-29T02:37:41.168Z,0.00
2018-06-29T02:38:41.121Z,0.00
2018-06-29T02:39:41.109Z,0.00
2018-06-29T02:40:41.095Z,0.00
2018-06-29T02:41:41.102Z,0.00
2018-06-29T02:42:41.075Z,0.00
2018-06-29T02:43:41.054Z,0.00
2018-06-29T02:44:41.047Z,0.00
2018-06-29T02:45:41.044Z,0.00
2018-06-29T02:46:41.050Z,0.00
2018-06-29T02:47:41.012Z,0.00
2018-06-29T02:48:41.018Z,0.00
2018-06-29T02:49:40.987Z,0.00
2018-06-29T02:50:40.977Z,0.00
2018-06-29T02:51:41.003Z,0.00
2018-06-29T02:52:40.955Z,0.00
2018-06-29T02:53:40.946Z,0.00
2018-06-29T02:54:40.929Z,0.00
2018-06-29T02:55:40.916Z,0.00
2018-06-29T02:56:40.906Z,0.00
2018-06-29T02:57:40.906Z,4.00
2018-06-29T02:58:40.878Z,4.00
2018-06-29T02:59:40.877Z,4.00
2018-06-29T03:00:40.854Z,0.00
2018-06-29T03:01:40.839Z,0.00
2018-06-29T03:02:40.847Z,4.00
2018-06-29T03:03:40.815Z,4.00
2018-06-29T03:04:40.803Z,4.00
2018-06-29T03:05:40.811Z,4.00
2018-06-29T03:06:40.777Z,4.00
2018-06-29T03:07:40.767Z,8.00
2018-06-29T03:08:40.772Z,4.00
2018-06-29T03:09:40.752Z,4.00
2018-06-29T03:10:40.736Z,8.00
2018-06-29T03:11:40.719Z,4.00
2018-06-29T03:12:40.708Z,8.00
2018-06-29T03:13:43.490Z,12.00
2018-06-29T03:14:40.692Z,8.00
2018-06-29T03:15:40.669Z,12.00
2018-06-29T03:16:40.650Z,12.00
2018-06-29T03:17:40.645Z,12.00
2018-06-29T03:18:40.633Z,12.00
2018-06-29T03:19:40.638Z,16.00
2018-06-29T03:20:40.624Z,16.00
2018-06-29T03:21:40.597Z,16.00
2018-06-29T03:22:40.577Z,16.00
2018-06-29T03:23:40.569Z,20.00
2018-06-29T03:24:40.559Z,20.00
2018-06-29T03:25:40.563Z,24.00
2018-06-29T03:26:40.530Z,24.00
2018-06-29T03:27:40.515Z,24.00
2018-06-29T03:28:40.509Z,28.00
2018-06-29T03:29:40.488Z,28.00
2018-06-29T03:30:40.513Z,28.00
2018-06-29T03:31:40.465Z,32.00
2018-06-29T03:32:40.458Z,32.00
2018-06-29T03:33:40.445Z,32.00
2018-06-29T03:34:40.436Z,36.00
2018-06-29T03:35:40.428Z,36.00
2018-06-29T03:37:01.423Z,40.00
2018-06-29T03:37:40.400Z,40.00
2018-06-29T03:38:40.381Z,40.00
2018-06-29T03:39:40.363Z,44.00
2018-06-29T03:40:40.418Z,48.00
2018-06-29T03:41:40.360Z,48.00
2018-06-29T03:42:40.335Z,52.00
2018-06-29T03:43:40.320Z,48.00
2018-06-29T03:44:40.303Z,52.00
2018-06-29T03:45:40.293Z,56.00
2018-06-29T03:46:40.284Z,56.00
2018-06-29T03:47:40.290Z,60.00
2018-06-29T03:48:40.260Z,64.00
2018-06-29T03:49:42.002Z,64.00
2018-06-29T03:50:40.234Z,68.00
2018-06-29T03:51:40.242Z,68.00
2018-06-29T03:52:40.211Z,72.00
2018-06-29T03:53:40.211Z,72.00
2018-06-29T03:54:40.198Z,72.00
2018-06-29T03:55:40.173Z,76.00
2018-06-29T03:56:40.172Z,76.00
2018-06-29T03:57:42.007Z,80.00
2018-06-29T03:58:40.137Z,80.00
2018-06-29T03:59:40.124Z,80.00
2018-06-29T04:00:40.109Z,84.00
2018-06-29T04:01:40.102Z,88.00
2018-06-29T04:02:40.102Z,88.00
2018-06-29T04:03:40.089Z,88.00
2018-06-29T04:04:40.063Z,92.00
2018-06-29T04:05:40.055Z,92.00
2018-06-29T04:06:42.006Z,92.00
2018-06-29T04:07:40.025Z,100.00
2018-06-29T04:08:40.013Z,100.00
2018-06-29T04:09:40.017Z,100.00
2018-06-29T04:10:39.985Z,104.00
2018-06-29T04:11:39.977Z,104.00
2018-06-29T04:12:39.966Z,104.00
2018-06-29T04:13:39.946Z,108.00
2018-06-29T04:14:39.951Z,112.00
2018-06-29T04:15:39.922Z,112.00
2018-06-29T04:16:39.911Z,112.00
2018-06-29T04:17:39.903Z,120.00
2018-06-29T04:18:39.887Z,116.00
2018-06-29T04:19:39.891Z,120.00
2018-06-29T04:20:39.865Z,120.00
2018-06-29T04:21:39.847Z,120.00
2018-06-29T04:22:39.856Z,124.00
2018-06-29T04:23:39.822Z,124.00
2018-06-29T04:24:39.829Z,128.00
2018-06-29T04:25:39.799Z,128.00
2018-06-29T04:26:39.789Z,132.00
2018-06-29T04:27:39.779Z,128.00
2018-06-29T04:28:39.766Z,132.00
2018-06-29T04:29:39.767Z,132.00
2018-06-29T04:30:39.743Z,136.00
2018-06-29T04:31:39.731Z,140.00
2018-06-29T04:32:39.716Z,140.00
2018-06-29T04:33:39.705Z,144.00
2018-06-29T04:34:39.693Z,144.00
2018-06-29T04:35:39.695Z,144.00
2018-06-29T04:36:39.668Z,152.00
2018-06-29T04:37:39.663Z,160.00
2018-06-29T04:38:39.638Z,164.00
2018-06-29T04:39:39.647Z,164.00
2018-06-29T04:40:39.616Z,164.00
2018-06-29T04:41:39.618Z,160.00
2018-06-29T04:42:39.597Z,176.00
2018-06-29T04:43:39.577Z,188.00
2018-06-29T04:44:39.566Z,200.00
2018-06-29T04:45:39.572Z,204.00
2018-06-29T04:46:39.564Z,220.00
2018-06-29T04:47:40.058Z,232.00
2018-06-29T04:48:39.515Z,236.00
2018-06-29T04:49:39.509Z,240.00
2018-06-29T04:50:39.497Z,244.00
2018-06-29T04:51:39.504Z,248.00
2018-06-29T04:52:39.470Z,244.00
2018-06-29T04:53:39.459Z,252.00
2018-06-29T04:54:39.455Z,252.00
2018-06-29T04:55:39.439Z,260.00
2018-06-29T04:56:39.426Z,268.00
2018-06-29T04:57:39.432Z,268.00
2018-06-29T04:58:39.411Z,276.00
2018-06-29T04:59:39.387Z,280.00
2018-06-29T05:00:39.381Z,284.00
2018-06-29T05:01:39.371Z,288.00
2018-06-29T05:02:39.359Z,288.00
2018-06-29T05:03:39.362Z,296.00
2018-06-29T05:04:39.331Z,300.00
2018-06-29T05:05:39.322Z,304.00
2018-06-29T05:06:39.318Z,308.00
2018-06-29T05:07:39.306Z,312.00
2018-06-29T05:08:39.292Z,320.00
2018-06-29T05:09:39.290Z,328.00
2018-06-29T05:10:39.267Z,336.00
2018-06-29T05:11:39.264Z,340.00
2018-06-29T05:12:39.247Z,348.00
2018-06-29T05:13:39.237Z,348.00
2018-06-29T05:14:40.050Z,352.00
2018-06-29T05:15:39.218Z,356.00
2018-06-29T05:16:39.211Z,360.00
2018-06-29T05:17:39.196Z,368.00
2018-06-29T05:18:39.185Z,376.00
2018-06-29T05:19:39.195Z,380.00
2018-06-29T05:20:39.165Z,344.00
2018-06-29T05:21:39.153Z,392.00
2018-06-29T05:22:39.142Z,364.00
2018-06-29T05:23:39.128Z,348.00
2018-06-29T05:24:39.137Z,332.00
2018-06-29T05:25:39.131Z,308.00
2018-06-29T05:26:39.102Z,308.00
2018-06-29T05:27:39.087Z,296.00
2018-06-29T05:28:39.126Z,284.00
2018-06-29T05:29:39.084Z,296.00
2018-06-29T05:30:39.070Z,260.00
2018-06-29T05:31:39.046Z,248.00
2018-06-29T05:32:39.045Z,244.00
2018-06-29T05:33:39.032Z,248.00
2018-06-29T05:34:39.017Z,248.00
2018-06-29T05:35:39.030Z,256.00
2018-06-29T05:36:39.006Z,248.00
2018-06-29T05:37:38.986Z,248.00
2018-06-29T05:38:38.972Z,244.00
2018-06-29T05:39:38.990Z,244.00
2018-06-29T05:40:38.979Z,236.00
2018-06-29T05:41:39.031Z,236.00
2018-06-29T05:42:38.971Z,240.00
2018-06-29T05:43:38.938Z,240.00
2018-06-29T05:44:38.913Z,240.00
2018-06-29T05:45:38.918Z,240.00
2018-06-29T05:46:38.901Z,244.00
2018-06-29T05:47:38.883Z,240.00
2018-06-29T05:48:38.870Z,248.00
2018-06-29T05:49:38.859Z,244.00
2018-06-29T05:50:38.908Z,248.00
2018-06-29T05:51:38.845Z,248.00
2018-06-29T05:52:38.824Z,252.00
2018-06-29T05:53:38.817Z,248.00
2018-06-29T05:54:38.806Z,256.00
2018-06-29T05:55:38.807Z,256.00
2018-06-29T05:56:38.809Z,256.00
2018-06-29T05:57:38.783Z,264.00
2018-06-29T05:58:38.763Z,268.00
2018-06-29T05:59:38.756Z,272.00
2018-06-29T06:00:38.743Z,260.00
2018-06-29T06:01:38.746Z,260.00
2018-06-29T06:02:38.733Z,264.00
2018-06-29T06:03:38.717Z,272.00
2018-06-29T06:04:38.806Z,272.00
2018-06-29T06:05:38.681Z,284.00
2018-06-29T06:06:38.724Z,280.00
2018-06-29T06:07:38.717Z,280.00
2018-06-29T06:08:38.660Z,272.00
2018-06-29T06:09:38.649Z,268.00
2018-06-29T06:10:38.648Z,280.00
2018-06-29T06:11:38.635Z,288.00
2018-06-29T06:12:38.637Z,292.00
2018-06-29T06:13:38.599Z,292.00
2018-06-29T06:14:38.599Z,292.00
2018-06-29T06:15:38.583Z,288.00
2018-06-29T06:16:38.577Z,292.00
2018-06-29T06:17:38.569Z,284.00
2018-06-29T06:18:38.565Z,292.00
2018-06-29T06:19:38.543Z,284.00
2018-06-29T06:20:38.557Z,284.00
2018-06-29T06:21:38.521Z,280.00
2018-06-29T06:22:38.511Z,280.00
2018-06-29T06:23:38.529Z,280.00
2018-06-29T06:24:38.486Z,280.00
2018-06-29T06:25:38.478Z,272.00
2018-06-29T06:26:38.478Z,276.00
2018-06-29T06:27:38.469Z,272.00
2018-06-29T06:28:38.447Z,272.00
2018-06-29T06:29:38.447Z,280.00
2018-06-29T06:30:38.424Z,288.00
2018-06-29T06:31:38.414Z,276.00
2018-06-29T06:32:38.399Z,280.00
2018-06-29T06:33:38.389Z,280.00
2018-06-29T06:34:38.399Z,284.00
2018-06-29T06:35:38.370Z,284.00
2018-06-29T06:36:38.361Z,288.00
2018-06-29T06:37:38.356Z,288.00
2018-06-29T06:38:38.336Z,288.00
2018-06-29T06:39:38.345Z,288.00
2018-06-29T06:40:38.334Z,288.00
2018-06-29T06:41:38.342Z,288.00
2018-06-29T06:42:38.297Z,292.00
2018-06-29T06:43:38.292Z,296.00
2018-06-29T06:44:38.277Z,296.00
2018-06-29T06:45:38.306Z,296.00
2018-06-29T06:46:38.255Z,300.00
2018-06-29T06:47:38.247Z,304.00
2018-06-29T06:48:38.245Z,304.00
2018-06-29T06:49:38.225Z,304.00
2018-06-29T06:50:38.212Z,308.00
2018-06-29T06:51:38.231Z,312.00
2018-06-29T06:52:38.191Z,316.00
2018-06-29T06:53:38.253Z,316.00
2018-06-29T06:54:38.174Z,312.00
2018-06-29T06:55:38.162Z,320.00
2018-06-29T06:56:38.175Z,324.00
2018-06-29T06:57:38.143Z,320.00
2018-06-29T06:58:38.124Z,324.00
2018-06-29T06:59:38.118Z,332.00
2018-06-29T07:00:38.109Z,336.00
2018-06-29T07:01:38.120Z,328.00
2018-06-29T07:02:38.093Z,332.00
2018-06-29T07:03:38.078Z,340.00
2018-06-29T07:04:38.068Z,336.00
2018-06-29T07:05:38.059Z,340.00
2018-06-29T07:06:38.064Z,336.00
2018-06-29T07:07:38.035Z,340.00
2018-06-29T07:08:38.045Z,336.00
2018-06-29T07:09:38.014Z,344.00
2018-06-29T07:10:38.008Z,336.00
2018-06-29T07:11:37.995Z,344.00
2018-06-29T07:12:38.052Z,344.00
2018-06-29T07:13:37.978Z,340.00
2018-06-29T07:14:37.965Z,348.00
2018-06-29T07:15:37.950Z,348.00
2018-06-29T07:16:37.957Z,340.00
2018-06-29T07:17:37.966Z,348.00
2018-06-29T07:18:37.921Z,348.00
2018-06-29T07:19:37.912Z,356.00
2018-06-29T07:20:37.911Z,360.00
2018-06-29T07:21:37.888Z,356.00
2018-06-29T07:22:37.903Z,364.00
2018-06-29T07:23:37.876Z,364.00
2018-06-29T07:24:37.873Z,360.00
2018-06-29T07:25:37.860Z,368.00
2018-06-29T07:26:37.858Z,364.00
2018-06-29T07:27:37.860Z,368.00
2018-06-29T07:28:37.828Z,372.00
2018-06-29T07:29:37.828Z,376.00
2018-06-29T07:30:37.808Z,376.00
2018-06-29T07:31:37.796Z,376.00
2018-06-29T07:32:37.807Z,380.00
2018-06-29T07:33:37.787Z,380.00
2018-06-29T07:34:37.771Z,380.00
2018-06-29T07:35:37.756Z,384.00
2018-06-29T07:36:37.751Z,384.00
2018-06-29T07:37:37.745Z,388.00
2018-06-29T07:38:37.780Z,388.00
2018-06-29T07:39:37.723Z,384.00
2018-06-29T07:40:37.703Z,388.00
2018-06-29T07:41:37.704Z,388.00
2018-06-29T07:42:37.687Z,384.00
2018-06-29T07:43:37.697Z,384.00
2018-06-29T07:44:37.662Z,388.00
2018-06-29T07:45:37.668Z,388.00
2018-06-29T07:46:37.660Z,400.00
2018-06-29T07:47:37.659Z,420.00
2018-06-29T07:48:37.643Z,556.00
2018-06-29T07:49:37.632Z,700.00
2018-06-29T07:50:37.612Z,764.00
2018-06-29T07:51:37.601Z,664.00
2018-06-29T07:52:37.586Z,548.00
2018-06-29T07:53:37.611Z,420.00
2018-06-29T07:54:37.600Z,472.00
2018-06-29T07:55:37.557Z,548.00
2018-06-29T07:56:37.558Z,544.00
2018-06-29T07:57:37.547Z,612.00
2018-06-29T07:58:37.642Z,616.00
2018-06-29T07:59:37.539Z,496.00
2018-06-29T08:00:37.510Z,420.00
2018-06-29T08:01:37.498Z,416.00
2018-06-29T08:02:37.510Z,416.00
2018-06-29T08:03:37.480Z,424.00
2018-06-29T08:04:37.495Z,424.00
2018-06-29T08:05:37.482Z,432.00
2018-06-29T08:06:37.473Z,436.00
2018-06-29T08:07:37.447Z,424.00
2018-06-29T08:08:38.075Z,428.00
2018-06-29T08:09:37.438Z,432.00
2018-06-29T08:10:37.485Z,436.00
2018-06-29T08:11:37.424Z,436.00
2018-06-29T08:12:37.400Z,428.00
2018-06-29T08:13:37.389Z,452.00
2018-06-29T08:14:37.382Z,456.00
2018-06-29T08:15:37.383Z,448.00
2018-06-29T08:16:37.373Z,448.00
2018-06-29T08:17:37.355Z,456.00
2018-06-29T08:18:37.363Z,456.00
2018-06-29T08:19:37.333Z,440.00
2018-06-29T08:20:37.334Z,460.00
2018-06-29T08:21:37.315Z,488.00
2018-06-29T08:22:37.306Z,500.00
2018-06-29T08:23:37.304Z,568.00
2018-06-29T08:24:37.289Z,588.00
2018-06-29T08:25:37.275Z,804.00
2018-06-29T08:26:37.281Z,444.00
2018-06-29T08:27:37.255Z,676.00
2018-06-29T08:28:37.251Z,716.00
2018-06-29T08:29:37.239Z,960.00
2018-06-29T08:30:37.228Z,1012.00
2018-06-29T08:31:37.240Z,1128.00
2018-06-29T08:32:37.214Z,892.00
2018-06-29T08:33:37.207Z,692.00
2018-06-29T08:34:37.195Z,576.00
2018-06-29T08:35:37.186Z,728.00
2018-06-29T08:36:37.191Z,572.00
2018-06-29T08:37:37.168Z,628.00
2018-06-29T08:38:37.200Z,484.00
2018-06-29T08:39:37.149Z,652.00
2018-06-29T08:40:37.145Z,636.00
2018-06-29T08:41:37.131Z,524.00
2018-06-29T08:42:37.152Z,616.00
2018-06-29T08:43:37.130Z,580.00
2018-06-29T08:44:37.103Z,568.00
2018-06-29T08:45:37.104Z,544.00
2018-06-29T08:46:37.147Z,556.00
2018-06-29T08:47:37.083Z,556.00
2018-06-29T08:48:37.085Z,564.00
2018-06-29T08:49:37.103Z,560.00
2018-06-29T08:50:37.053Z,600.00
2018-06-29T08:51:37.044Z,640.00
2018-06-29T08:52:37.034Z,664.00
2018-06-29T08:53:37.038Z,732.00
2018-06-29T08:54:37.035Z,700.00
2018-06-29T08:55:37.011Z,1772.00
2018-06-29T08:56:37.004Z,1456.00
2018-06-29T08:57:37.004Z,1184.00
2018-06-29T08:58:36.985Z,876.00
2018-06-29T08:59:36.992Z,1036.00
2018-06-29T09:00:36.979Z,1088.00
2018-06-29T09:01:36.958Z,1200.00
2018-06-29T09:02:36.955Z,944.00
2018-06-29T09:03:36.959Z,1832.00
2018-06-29T09:04:36.948Z,1708.00
2018-06-29T09:05:36.925Z,4352.00
2018-06-29T09:06:36.916Z,6340.00
2018-06-29T09:07:36.909Z,5032.00
2018-06-29T09:08:37.635Z,3024.00
2018-06-29T09:09:36.911Z,196.00
2018-06-29T09:10:36.886Z,10200.00
2018-06-29T09:11:36.873Z,11204.00
2018-06-29T09:12:36.869Z,8392.00
2018-06-29T09:13:36.865Z,6072.00
2018-06-29T09:14:36.854Z,8812.00
2018-06-29T09:15:36.862Z,12772.00
2018-06-29T09:16:36.836Z,11644.00
2018-06-29T09:17:36.836Z,20256.00
2018-06-29T09:18:36.825Z,828.00
2018-06-29T09:19:36.820Z,2636.00
2018-06-29T09:20:36.823Z,21440.00
2018-06-29T09:21:36.817Z,20032.00
2018-06-29T09:22:36.805Z,21856.00
2018-06-29T09:23:36.789Z,21312.00
2018-06-29T09:24:36.788Z,19680.00
2018-06-29T09:25:36.782Z,20864.00
2018-06-29T09:26:36.792Z,20608.00
2018-06-29T09:27:36.763Z,20512.00
2018-06-29T09:28:36.760Z,20544.00
2018-06-29T09:29:36.770Z,20704.00
2018-06-29T09:30:36.755Z,20832.00
2018-06-29T09:31:36.765Z,20704.00
2018-06-29T09:32:36.750Z,19936.00
2018-06-29T09:33:36.744Z,20544.00
2018-06-29T09:34:36.742Z,20608.00
2018-06-29T09:35:36.737Z,20704.00
2018-06-29T09:36:36.750Z,20768.00
2018-06-29T09:37:36.735Z,20768.00
2018-06-29T09:38:36.733Z,20672.00
2018-06-29T09:39:36.724Z,20736.00
2018-06-29T09:40:36.728Z,20736.00
2018-06-29T09:41:36.725Z,21088.00
2018-06-29T09:42:36.821Z,18080.00
2018-06-29T09:43:36.717Z,20192.00
2018-06-29T09:44:36.727Z,21152.00
2018-06-29T09:45:36.718Z,21376.00
2018-06-29T09:46:36.723Z,21664.00
2018-06-29T09:47:36.731Z,22208.00
2018-06-29T09:48:36.736Z,23424.00
2018-06-29T09:49:36.720Z,23712.00
2018-06-29T09:50:36.719Z,24224.00
2018-06-29T09:51:36.713Z,24864.00
2018-06-29T09:52:36.729Z,25888.00
2018-06-29T09:53:36.736Z,25792.00
2018-06-29T09:54:36.735Z,25376.00
2018-06-29T09:55:36.716Z,23936.00
2018-06-29T09:56:36.721Z,25760.00
2018-06-29T09:57:36.722Z,26464.00
2018-06-29T09:58:36.737Z,24320.00
2018-06-29T09:59:36.735Z,26560.00
2018-06-29T10:00:36.771Z,27168.00
2018-06-29T10:01:36.725Z,26624.00
2018-06-29T10:02:39.273Z,27008.00
2018-06-29T10:03:36.745Z,28064.00
2018-06-29T10:04:36.724Z,28320.00
2018-06-29T10:05:36.726Z,28224.00
2018-06-29T10:06:36.724Z,27968.00
2018-06-29T10:07:36.731Z,28992.00
2018-06-29T10:08:36.744Z,29056.00
2018-06-29T10:09:36.750Z,29760.00
2018-06-29T10:10:36.732Z,27328.00
2018-06-29T10:11:36.732Z,30304.00
2018-06-29T10:12:36.735Z,30336.00
2018-06-29T10:13:36.730Z,30816.00
2018-06-29T10:14:36.752Z,30944.00
2018-06-29T10:15:36.758Z,31136.00
2018-06-29T10:16:36.739Z,22560.00
2018-06-29T10:17:36.744Z,30816.00
2018-06-29T10:18:36.742Z,31136.00
2018-06-29T10:19:36.870Z,31776.00
2018-06-29T10:20:36.761Z,31616.00
2018-06-29T10:21:36.751Z,31968.00
2018-06-29T10:22:36.752Z,31584.00
2018-06-29T10:23:36.754Z,31680.00
2018-06-29T10:24:36.764Z,31392.00
2018-06-29T10:25:36.767Z,31552.00
2018-06-29T10:26:36.758Z,31872.00
2018-06-29T10:27:36.755Z,31808.00
2018-06-29T10:28:36.756Z,30944.00
2018-06-29T10:29:36.762Z,31712.00
2018-06-29T10:30:38.620Z,32032.00
2018-06-29T10:31:36.764Z,31360.00
2018-06-29T10:32:36.774Z,31008.00
2018-06-29T10:33:36.771Z,32000.00
2018-06-29T10:34:36.774Z,31840.00
2018-06-29T10:35:36.779Z,30976.00
2018-06-29T10:36:36.837Z,30688.00
2018-06-29T10:37:36.794Z,31296.00
2018-06-29T10:38:36.802Z,30176.00
2018-06-29T10:39:36.786Z,30816.00
2018-06-29T10:40:36.792Z,31264.00
2018-06-29T10:41:36.802Z,30560.00
2018-06-29T10:42:36.797Z,30112.00
2018-06-29T10:43:36.823Z,30368.00
2018-06-29T10:44:36.816Z,30688.00
2018-06-29T10:45:36.812Z,31136.00
2018-06-29T10:46:36.812Z,28512.00
2018-06-29T10:47:36.808Z,28224.00
2018-06-29T10:48:36.828Z,30144.00
2018-06-29T10:49:36.818Z,28704.00
2018-06-29T10:50:36.819Z,29984.00
2018-06-29T10:51:36.827Z,30336.00
2018-06-29T10:52:36.829Z,31360.00
2018-06-29T10:53:36.868Z,30208.00
2018-06-29T10:54:36.838Z,30400.00
2018-06-29T10:55:36.834Z,28416.00
2018-06-29T10:56:36.855Z,28608.00
2018-06-29T10:57:36.839Z,29920.00
2018-06-29T10:58:36.899Z,30784.00
2018-06-29T10:59:36.866Z,28800.00
2018-06-29T11:00:36.856Z,30496.00
2018-06-29T11:01:36.860Z,29280.00
2018-06-29T11:02:36.861Z,27136.00
2018-06-29T11:03:36.867Z,25920.00
2018-06-29T11:04:36.908Z,29120.00
2018-06-29T11:05:36.878Z,29952.00
2018-06-29T11:06:36.879Z,12288.00
2018-06-29T11:07:36.880Z,30304.00
2018-06-29T11:08:36.888Z,29792.00
2018-06-29T11:09:36.886Z,29920.00
2018-06-29T11:10:36.908Z,29408.00
2018-06-29T11:11:36.896Z,28384.00
2018-06-29T11:12:36.897Z,27744.00
2018-06-29T11:13:36.922Z,22368.00
2018-06-29T11:14:36.912Z,26592.00
2018-06-29T11:15:36.921Z,26784.00
2018-06-29T11:16:36.911Z,23808.00
2018-06-29T11:17:36.930Z,24960.00
2018-06-29T11:18:36.925Z,23968.00
2018-06-29T11:19:36.929Z,20768.00
2018-06-29T11:20:36.950Z,20512.00
2018-06-29T11:21:36.947Z,20000.00
2018-06-29T11:22:36.970Z,17184.00
2018-06-29T11:23:36.948Z,20000.00
2018-06-29T11:24:36.979Z,21856.00
2018-06-29T11:25:36.966Z,22688.00
2018-06-29T11:26:36.957Z,23840.00
2018-06-29T11:27:36.970Z,14104.00
2018-06-29T11:28:36.969Z,22080.00
2018-06-29T11:29:36.974Z,16192.00
2018-06-29T11:30:37.065Z,18688.00
2018-06-29T11:31:38.761Z,17664.00
2018-06-29T11:32:51.952Z,22208.00
2018-06-29T11:33:37.001Z,4152.00
2018-06-29T11:34:37.006Z,4400.00
2018-06-29T11:35:36.993Z,2616.00
2018-06-29T11:36:37.019Z,15316.00
2018-06-29T11:37:37.028Z,16512.00
2018-06-29T11:38:37.009Z,12968.00
2018-06-29T11:39:37.035Z,19200.00
2018-06-29T11:40:37.011Z,13724.00
2018-06-29T11:41:37.048Z,6048.00
2018-06-29T11:42:37.069Z,2896.00
2018-06-29T11:43:38.138Z,17344.00
2018-06-29T11:44:37.054Z,10520.00
2018-06-29T11:45:38.640Z,16416.00
2018-06-29T11:46:37.043Z,10808.00
2018-06-29T11:47:37.067Z,9384.00
2018-06-29T11:48:37.068Z,3928.00
2018-06-29T11:49:37.066Z,8776.00
2018-06-29T11:50:37.094Z,6100.00
2018-06-29T11:51:37.072Z,7652.00
2018-06-29T11:52:37.103Z,7136.00
2018-06-29T11:53:37.100Z,7596.00
2018-06-29T11:54:37.106Z,6832.00
2018-06-29T11:55:37.134Z,5824.00
2018-06-29T11:56:37.110Z,6720.00
2018-06-29T11:57:37.121Z,6324.00
2018-06-29T11:58:37.177Z,5624.00
2018-06-29T11:59:37.135Z,4784.00
2018-06-29T12:00:37.142Z,5064.00
2018-06-29T12:01:37.119Z,4208.00
2018-06-29T12:02:37.147Z,4488.00
2018-06-29T12:03:37.128Z,3964.00
2018-06-29T12:04:37.145Z,5660.00
2018-06-29T12:05:37.139Z,4280.00
2018-06-29T12:06:37.160Z,2560.00
2018-06-29T12:07:37.137Z,3560.00
2018-06-29T12:08:37.139Z,2332.00
2018-06-29T12:09:37.172Z,3616.00
2018-06-29T12:10:37.170Z,2600.00
2018-06-29T12:11:37.153Z,2336.00
2018-06-29T12:12:37.160Z,2176.00
2018-06-29T12:13:37.172Z,2188.00
2018-06-29T12:14:37.179Z,2640.00
2018-06-29T12:15:37.168Z,2336.00
2018-06-29T12:16:37.172Z,2712.00
2018-06-29T12:17:37.176Z,1596.00
2018-06-29T12:18:37.187Z,2144.00
2018-06-29T12:19:37.203Z,2156.00
2018-06-29T12:20:37.216Z,2188.00
2018-06-29T12:21:37.187Z,2720.00
2018-06-29T12:22:37.189Z,2696.00
2018-06-29T12:23:37.196Z,3728.00
2018-06-29T12:24:37.195Z,2912.00
2018-06-29T12:25:37.286Z,2812.00
2018-06-29T12:26:37.217Z,2768.00
2018-06-29T12:27:37.212Z,3156.00
2018-06-29T12:28:37.231Z,2976.00
2018-06-29T12:29:37.295Z,2940.00
2018-06-29T12:30:37.237Z,2916.00